Holguin, Cuba
Current Conditions -  °F | °C
As of 12:50 AM on Sunday 21 Dec 2014 (Local Time) from MUHG Reporting Station
Clear Clear  
Wind Chill: 68°   Ceiling: Unl
Heat Index: 68°   Visibility: 6mi
Dew Point: 64°   Wind: 1mph
Humidity: 88%   Direction: 340°NNW
Pressure: 30.03"   Gusts: NA
Location:  20.89°N, 76.25°W
Report Text: MUHG 210450Z 34001KT 9000 SKC 20/18 Q1017
Loading
Personal Weather Stations






























Interactive Weather Map New forecast layout! Learn more

10-Day Weather Forecast

Advertisements
Track Severe Weather on mobile